createdAt,value
2023-04-19T00:01:32.772Z,9.80
2023-04-19T00:03:59.921Z,20.77
2023-04-19T00:06:30.674Z,11.50
2023-04-19T00:08:57.757Z,17.13
2023-04-19T00:11:24.878Z,18.80
2023-04-19T00:13:51.959Z,8.53
2023-04-19T00:16:18.952Z,14.77
2023-04-19T00:18:46.813Z,15.13
2023-04-19T00:21:13.864Z,17.50
2023-04-19T00:23:40.937Z,16.63
2023-04-19T00:26:07.913Z,9.40
2023-04-19T00:28:35.418Z,11.90
2023-04-19T00:31:02.378Z,11.50
2023-04-19T00:33:31.329Z,8.60
2023-04-19T00:35:58.430Z,10.60
2023-04-19T00:38:25.567Z,15.50
2023-04-19T00:40:52.622Z,8.63
2023-04-19T00:43:20.204Z,8.60
2023-04-19T00:45:49.486Z,8.77
2023-04-19T00:48:16.972Z,16.67
2023-04-19T00:50:46.232Z,14.77
2023-04-19T00:53:13.368Z,13.00
2023-04-19T00:55:40.521Z,16.37
2023-04-19T00:58:08.862Z,14.00
2023-04-19T01:00:37.013Z,13.80
2023-04-19T01:03:04.348Z,5.63
2023-04-19T01:05:31.651Z,13.10
2023-04-19T01:07:58.622Z,8.87
2023-04-19T01:10:27.078Z,12.37
2023-04-19T01:12:54.088Z,13.50
2023-04-19T01:15:21.205Z,10.57
2023-04-19T01:17:49.892Z,13.60
2023-04-19T01:20:16.846Z,17.83
2023-04-19T01:22:44.617Z,9.47
2023-04-19T01:25:11.764Z,8.80
2023-04-19T01:27:38.824Z,12.67
2023-04-19T01:30:06.637Z,9.67
2023-04-19T01:32:33.698Z,9.70
2023-04-19T01:35:00.871Z,6.70
2023-04-19T01:37:30.343Z,10.93
2023-04-19T01:39:57.480Z,10.67
2023-04-19T01:42:24.823Z,9.90
2023-04-19T01:44:52.712Z,7.77
2023-04-19T01:47:19.852Z,6.30
2023-04-19T01:49:47.099Z,13.53
2023-04-19T01:52:15.865Z,9.03
2023-04-19T01:54:42.852Z,14.63
2023-04-19T01:57:09.878Z,9.50
2023-04-19T01:59:36.750Z,10.63
2023-04-19T02:02:07.168Z,4.63
2023-04-19T02:04:34.927Z,9.73
2023-04-19T02:07:01.847Z,6.73
2023-04-19T02:09:29.403Z,7.33
2023-04-19T02:11:56.351Z,8.47
2023-04-19T02:14:23.191Z,8.60
2023-04-19T02:16:50.265Z,4.37
2023-04-19T02:19:18.131Z,11.73
2023-04-19T02:21:45.011Z,5.00
2023-04-19T02:24:14.628Z,8.43
2023-04-19T02:26:42.599Z,7.47
2023-04-19T02:29:09.955Z,7.87
2023-04-19T02:31:38.671Z,6.97
2023-04-19T02:34:09.515Z,11.97
2023-04-19T02:36:36.521Z,9.40
2023-04-19T02:39:05.586Z,14.43
2023-04-19T02:41:32.760Z,9.20
2023-04-19T02:44:02.247Z,10.20
2023-04-19T02:46:29.323Z,6.03
2023-04-19T02:48:56.575Z,6.03
2023-04-19T02:51:23.572Z,12.40
2023-04-19T02:53:50.614Z,5.47
2023-04-19T02:56:17.717Z,9.83
2023-04-19T02:58:45.593Z,6.50
2023-04-19T03:01:12.693Z,9.47
2023-04-19T03:03:39.768Z,8.43
2023-04-19T03:06:07.142Z,7.47
2023-04-19T03:08:34.218Z,7.10
2023-04-19T03:11:01.256Z,8.20
2023-04-19T03:13:30.579Z,7.33
2023-04-19T03:15:57.594Z,4.70
2023-04-19T03:18:25.068Z,8.20
2023-04-19T03:20:55.224Z,5.90
2023-04-19T03:23:22.353Z,8.33
2023-04-19T03:25:51.290Z,7.07
2023-04-19T03:28:32.914Z,7.57
2023-04-19T03:31:35.498Z,6.30
2023-04-19T03:34:03.976Z,5.53
2023-04-19T03:36:40.459Z,8.87
2023-04-19T03:39:08.157Z,7.03
2023-04-19T03:41:37.072Z,6.40
2023-04-19T03:44:22.657Z,10.13
2023-04-19T03:46:49.674Z,6.87
2023-04-19T03:49:21.389Z,9.57
2023-04-19T03:51:54.188Z,9.83
2023-04-19T03:54:21.126Z,19.97
2023-04-19T03:56:48.102Z,20.20
2023-04-19T03:59:15.798Z,15.00
2023-04-19T04:01:43.379Z,11.63
2023-04-19T04:04:11.956Z,11.40
2023-04-19T04:06:39.835Z,9.70
2023-04-19T04:09:07.712Z,10.10
2023-04-19T04:11:35.232Z,15.60
2023-04-19T04:14:02.549Z,7.23
2023-04-19T04:16:35.279Z,13.37
2023-04-19T04:19:02.342Z,17.90
2023-04-19T04:21:32.302Z,21.33
2023-04-19T04:24:02.123Z,15.70
2023-04-19T04:27:04.783Z,10.50
2023-04-19T04:29:34.722Z,7.40
2023-04-19T04:32:08.360Z,10.97
2023-04-19T04:34:38.686Z,15.17
2023-04-19T04:37:10.625Z,21.70
2023-04-19T04:39:39.885Z,5.97
2023-04-19T04:42:09.197Z,15.17
2023-04-19T04:44:37.452Z,16.53
2023-04-19T04:47:05.341Z,10.57
2023-04-19T04:49:38.496Z,13.47
2023-04-19T04:52:06.533Z,14.83
2023-04-19T04:54:39.367Z,8.23
2023-04-19T04:57:15.904Z,6.00
2023-04-19T04:59:43.204Z,4.50
2023-04-19T05:02:11.006Z,6.30
2023-04-19T05:04:39.218Z,11.77
2023-04-19T05:07:06.436Z,6.43
2023-04-19T05:09:33.384Z,7.27
2023-04-19T05:12:01.818Z,6.83
2023-04-19T05:14:29.929Z,8.90
2023-04-19T05:16:56.852Z,4.80
2023-04-19T05:19:23.913Z,8.40
2023-04-19T05:21:57.320Z,4.53
2023-04-19T05:24:24.321Z,8.07
2023-04-19T05:26:51.867Z,3.97
2023-04-19T05:29:18.871Z,3.40
2023-04-19T05:31:48.985Z,7.50
2023-04-19T05:34:22.068Z,4.87
2023-04-19T05:36:49.734Z,6.37
2023-04-19T05:39:17.362Z,8.13
2023-04-19T05:41:44.500Z,8.40
2023-04-19T05:44:11.650Z,3.73
2023-04-19T05:46:38.659Z,10.97
2023-04-19T05:49:08.533Z,11.10
2023-04-19T05:52:04.989Z,9.23
2023-04-19T05:54:47.461Z,9.03
2023-04-19T05:57:14.555Z,8.07
2023-04-19T05:59:42.579Z,10.30
2023-04-19T06:02:10.976Z,11.30
2023-04-19T06:04:38.391Z,5.33
2023-04-19T06:07:10.531Z,9.53
2023-04-19T06:09:44.910Z,4.97
2023-04-19T06:12:11.947Z,8.30
2023-04-19T06:14:38.821Z,8.27
2023-04-19T06:17:06.206Z,10.70
2023-04-19T06:19:34.046Z,12.63
2023-04-19T06:22:01.564Z,13.43
2023-04-19T06:24:28.850Z,5.87
2023-04-19T06:26:56.892Z,9.50
2023-04-19T06:29:24.204Z,6.00
2023-04-19T06:31:51.552Z,9.00
2023-04-19T06:34:18.922Z,10.37
2023-04-19T06:36:46.189Z,10.03
2023-04-19T06:39:13.274Z,12.93
2023-04-19T06:41:40.178Z,15.43
2023-04-19T06:44:07.369Z,11.30
2023-04-19T06:46:34.367Z,15.33
2023-04-19T06:49:01.183Z,8.60
2023-04-19T06:51:28.141Z,16.43
2023-04-19T06:53:55.367Z,12.97
2023-04-19T06:56:47.749Z,9.73
2023-04-19T06:59:19.968Z,16.20
2023-04-19T07:01:48.223Z,11.47
2023-04-19T07:04:16.137Z,11.63
2023-04-19T07:06:43.647Z,14.70
2023-04-19T07:09:10.681Z,7.90
2023-04-19T07:11:37.584Z,4.57
2023-04-19T07:14:04.535Z,5.60
2023-04-19T07:16:31.617Z,3.93
2023-04-19T07:18:58.690Z,3.80
2023-04-19T07:21:28.795Z,7.13
2023-04-19T07:23:55.809Z,4.73
2023-04-19T07:26:22.632Z,4.83
2023-04-19T07:28:50.457Z,4.20
2023-04-19T07:31:18.597Z,6.07
2023-04-19T07:33:45.983Z,3.80
2023-04-19T07:36:13.918Z,6.87
2023-04-19T07:38:40.765Z,4.37
2023-04-19T07:41:07.720Z,10.57
2023-04-19T07:43:35.155Z,2.73
2023-04-19T07:46:02.556Z,3.90
2023-04-19T07:48:29.728Z,2.90
2023-04-19T07:50:56.726Z,3.73
2023-04-19T07:53:23.597Z,5.70
2023-04-19T07:55:50.453Z,11.87
2023-04-19T07:58:17.561Z,5.57
2023-04-19T08:00:44.437Z,3.97
2023-04-19T08:03:11.595Z,3.17
2023-04-19T08:05:39.305Z,9.47
2023-04-19T08:08:06.300Z,2.67
2023-04-19T08:10:33.586Z,3.50
2023-04-19T08:13:05.207Z,3.50
2023-04-19T08:18:05.294Z,5.60
2023-04-19T08:20:32.848Z,5.00
2023-04-19T08:23:07.225Z,37.87
2023-04-19T08:25:35.207Z,8.43
2023-04-19T08:28:02.377Z,7.73
2023-04-19T08:30:29.233Z,4.50
2023-04-19T08:32:57.450Z,11.87
2023-04-19T08:35:25.394Z,4.70
2023-04-19T08:37:52.653Z,2.03
2023-04-19T08:40:19.717Z,5.20
2023-04-19T08:42:46.618Z,2.03
2023-04-19T08:45:27.581Z,2.83
2023-04-19T08:48:01.516Z,5.20
2023-04-19T08:53:08.540Z,1.53
2023-04-19T08:56:06.780Z,3.73
2023-04-19T08:58:54.932Z,4.00
2023-04-19T09:01:34.731Z,8.30
2023-04-19T09:04:21.688Z,4.43
2023-04-19T09:06:55.731Z,5.40
2023-04-19T09:11:58.273Z,3.80
2023-04-19T09:14:26.695Z,2.60
2023-04-19T09:16:53.911Z,6.27
2023-04-19T09:19:24.822Z,4.53
2023-04-19T09:21:54.714Z,2.57
2023-04-19T09:25:13.809Z,3.37
2023-04-19T09:27:27.938Z,4.10
2023-04-19T09:29:56.963Z,2.60
2023-04-19T09:32:24.406Z,1.77
2023-04-19T09:34:59.144Z,1.87
2023-04-19T09:37:51.433Z,5.83
2023-04-19T09:40:27.066Z,3.47
2023-04-19T09:43:08.835Z,3.93
2023-04-19T09:45:47.341Z,6.47
2023-04-19T09:48:14.399Z,1.53
2023-04-19T09:51:02.331Z,4.10
2023-04-19T09:53:34.644Z,5.47
2023-04-19T09:56:04.159Z,3.17
2023-04-19T09:58:42.501Z,5.30
2023-04-19T10:01:16.256Z,5.33
2023-04-19T10:03:49.939Z,5.00
2023-04-19T10:08:50.388Z,1.60
2023-04-19T10:11:19.900Z,4.47
2023-04-19T10:13:49.051Z,4.17
2023-04-19T10:16:20.004Z,1.43
2023-04-19T10:18:50.314Z,3.77
2023-04-19T10:21:19.353Z,4.87
2023-04-19T10:23:47.196Z,1.93
2023-04-19T10:26:14.242Z,1.80
2023-04-19T10:28:42.492Z,2.23
2023-04-19T10:31:16.269Z,2.13
2023-04-19T10:33:43.439Z,3.73
2023-04-19T10:36:15.071Z,3.43
2023-04-19T10:38:48.276Z,2.37
2023-04-19T10:41:18.305Z,4.17
2023-04-19T10:44:09.483Z,6.30
2023-04-19T10:46:38.651Z,5.60
2023-04-19T10:49:07.888Z,3.97
2023-04-19T10:51:42.447Z,2.93
2023-04-19T10:54:27.533Z,3.20
2023-04-19T10:57:00.626Z,1.27
2023-04-19T10:59:29.964Z,2.47
2023-04-19T11:01:59.697Z,2.53
2023-04-19T11:04:30.794Z,4.23
2023-04-19T11:07:06.276Z,5.03
2023-04-19T11:09:39.178Z,2.10
2023-04-19T11:12:09.905Z,4.43
2023-04-19T11:14:45.432Z,3.77
2023-04-19T11:17:27.854Z,5.50
2023-04-19T11:19:57.014Z,4.40
2023-04-19T11:22:27.017Z,3.40
2023-04-19T11:24:53.902Z,2.47
2023-04-19T11:27:21.617Z,2.00
2023-04-19T11:29:48.574Z,6.50
2023-04-19T11:32:15.634Z,5.07
2023-04-19T11:34:42.748Z,3.37
2023-04-19T11:37:11.030Z,3.53
2023-04-19T11:39:46.644Z,3.20
2023-04-19T11:42:18.433Z,6.93
2023-04-19T11:44:52.622Z,8.23
2023-04-19T11:47:39.778Z,6.33
2023-04-19T11:50:55.918Z,4.87
2023-04-19T11:53:44.127Z,3.90
2023-04-19T11:56:31.148Z,1.43
2023-04-19T11:59:18.319Z,2.40
2023-04-19T12:02:05.776Z,5.93
2023-04-19T12:04:52.929Z,1.93
2023-04-19T12:07:40.215Z,3.57
2023-04-19T12:10:32.293Z,4.30
2023-04-19T12:13:19.476Z,3.50
2023-04-19T12:16:06.956Z,5.40
2023-04-19T12:19:06.326Z,1.07
2023-04-19T12:21:53.184Z,5.17
2023-04-19T12:24:40.222Z,1.47
2023-04-19T12:27:27.959Z,2.97
2023-04-19T12:30:14.960Z,4.17
2023-04-19T12:33:02.020Z,6.90
2023-04-19T12:35:49.240Z,4.17
2023-04-19T12:38:36.023Z,4.60
2023-04-19T12:41:22.946Z,6.03
2023-04-19T12:44:09.842Z,2.23
2023-04-19T12:46:56.857Z,1.90
2023-04-19T12:49:43.709Z,3.17
2023-04-19T12:52:30.938Z,2.33
2023-04-19T12:55:17.794Z,4.43
2023-04-19T12:58:04.898Z,1.47
2023-04-19T13:00:51.776Z,3.87
2023-04-19T13:03:39.024Z,1.20
2023-04-19T13:06:26.307Z,1.80
2023-04-19T13:09:14.874Z,1.40
2023-04-19T13:12:02.366Z,6.27
2023-04-19T13:14:49.506Z,5.50
2023-04-19T13:17:36.723Z,4.03
2023-04-19T13:20:24.256Z,3.67
2023-04-19T13:23:11.167Z,3.37
2023-04-19T13:25:58.386Z,5.90
2023-04-19T13:28:45.321Z,1.87
2023-04-19T13:31:32.522Z,5.27
2023-04-19T13:34:19.537Z,4.43
2023-04-19T13:37:06.978Z,3.27
2023-04-19T13:40:03.984Z,4.97
2023-04-19T13:42:57.973Z,4.13
2023-04-19T13:45:44.979Z,2.50
2023-04-19T13:48:32.026Z,1.70
2023-04-19T13:51:19.678Z,3.83
2023-04-19T13:54:06.890Z,4.17
2023-04-19T13:56:53.810Z,4.53
2023-04-19T13:59:41.142Z,4.63
2023-04-19T14:02:28.750Z,4.83
2023-04-19T14:05:15.822Z,6.47
2023-04-19T14:08:02.725Z,4.27
2023-04-19T14:10:49.755Z,2.20
2023-04-19T14:13:37.030Z,2.33
2023-04-19T14:16:24.561Z,1.87
2023-04-19T14:19:11.621Z,3.23
2023-04-19T14:21:58.805Z,2.33
2023-04-19T14:24:45.766Z,5.80
2023-04-19T14:27:32.809Z,3.70
2023-04-19T14:30:19.665Z,5.50
2023-04-19T14:33:06.683Z,4.67
2023-04-19T14:35:53.495Z,8.23
2023-04-19T14:38:40.490Z,3.87
2023-04-19T14:41:27.285Z,3.93
2023-04-19T14:44:14.638Z,4.60
2023-04-19T14:47:01.475Z,8.00
2023-04-19T14:49:48.644Z,7.93
2023-04-19T14:52:35.668Z,4.00
2023-04-19T14:55:22.681Z,3.77
2023-04-19T14:58:09.529Z,3.20
2023-04-19T15:00:56.610Z,5.70
2023-04-19T15:03:43.743Z,5.77
2023-04-19T15:06:30.917Z,4.20
2023-04-19T15:09:18.172Z,1.63
2023-04-19T15:12:05.422Z,2.33
2023-04-19T15:14:52.372Z,5.07
2023-04-19T15:17:39.525Z,3.53
2023-04-19T15:20:27.052Z,3.70
2023-04-19T15:23:14.105Z,8.30
2023-04-19T15:26:00.948Z,2.93
2023-04-19T15:28:48.047Z,7.60
2023-04-19T15:31:34.979Z,6.53
2023-04-19T15:34:22.890Z,3.37
2023-04-19T15:37:09.766Z,6.10
2023-04-19T15:39:57.068Z,3.70
2023-04-19T15:42:43.864Z,5.63
2023-04-19T15:45:31.957Z,4.97
2023-04-19T15:48:18.891Z,4.47
2023-04-19T15:51:06.073Z,4.50
2023-04-19T15:53:52.916Z,5.50
2023-04-19T15:56:39.918Z,6.03
2023-04-19T15:59:26.739Z,5.93
2023-04-19T16:02:13.876Z,5.33
2023-04-19T16:05:00.889Z,2.17
2023-04-19T16:07:48.516Z,3.10
2023-04-19T16:10:35.468Z,3.73
2023-04-19T16:13:25.438Z,6.07
2023-04-19T16:16:12.316Z,3.53
2023-04-19T16:18:59.422Z,3.13
2023-04-19T16:21:46.350Z,5.53
2023-04-19T16:24:33.462Z,3.37
2023-04-19T16:27:21.401Z,3.07
2023-04-19T16:30:08.455Z,5.17
2023-04-19T16:32:55.372Z,3.77
2023-04-19T16:35:42.885Z,7.37
2023-04-19T16:38:29.820Z,4.80
2023-04-19T16:41:16.709Z,4.50
2023-04-19T16:44:03.629Z,4.93
2023-04-19T16:46:50.837Z,4.63
2023-04-19T16:49:37.883Z,4.27
2023-04-19T16:52:25.006Z,3.33
2023-04-19T16:55:11.882Z,4.43
2023-04-19T16:57:58.988Z,4.43
2023-04-19T17:00:45.845Z,4.10
2023-04-19T17:03:33.056Z,2.33
2023-04-19T17:06:21.070Z,5.47
2023-04-19T17:09:08.173Z,6.47
2023-04-19T17:11:55.082Z,4.43
2023-04-19T17:14:42.819Z,7.43
2023-04-19T17:17:29.686Z,2.67
2023-04-19T17:20:16.693Z,8.87
2023-04-19T17:23:03.971Z,5.20
2023-04-19T17:25:50.962Z,5.30
2023-04-19T17:28:37.801Z,5.13
2023-04-19T17:31:24.915Z,6.87
2023-04-19T17:34:11.736Z,4.20
2023-04-19T17:36:58.701Z,7.30
2023-04-19T17:39:45.845Z,12.57
2023-04-19T17:42:32.731Z,4.30
2023-04-19T17:45:19.596Z,5.50
2023-04-19T17:48:06.612Z,5.13
2023-04-19T17:50:53.604Z,4.87
2023-04-19T17:53:40.462Z,6.27
2023-04-19T17:56:27.402Z,4.53
2023-04-19T17:59:14.531Z,6.73
2023-04-19T18:02:01.673Z,5.50
2023-04-19T18:04:48.720Z,6.97
2023-04-19T18:07:35.774Z,5.60
2023-04-19T18:10:22.885Z,4.20
2023-04-19T18:13:09.938Z,6.03
2023-04-19T18:15:56.850Z,5.73
2023-04-19T18:18:43.818Z,6.30
2023-04-19T18:21:30.929Z,6.73
2023-04-19T18:24:17.881Z,4.27
2023-04-19T18:27:04.935Z,5.30
2023-04-19T18:29:51.932Z,12.60
2023-04-19T18:32:39.353Z,12.17
2023-04-19T18:35:27.502Z,12.27
2023-04-19T18:38:14.491Z,9.27
2023-04-19T18:41:01.318Z,36.00
2023-04-19T18:44:06.835Z,26.30
2023-04-19T18:46:55.151Z,32.20
2023-04-19T18:49:46.149Z,43.07
2023-04-19T18:52:44.983Z,33.37
2023-04-19T18:55:32.097Z,47.63
2023-04-19T18:58:18.968Z,47.60
2023-04-19T19:01:06.218Z,22.20
2023-04-19T19:04:23.527Z,19.50
2023-04-19T19:07:10.806Z,22.83
2023-04-19T19:10:16.802Z,25.73
2023-04-19T19:13:05.138Z,25.63
2023-04-19T19:15:51.988Z,23.80
2023-04-19T19:18:38.986Z,35.57
2023-04-19T19:21:28.640Z,44.43
2023-04-19T19:24:15.654Z,56.40
2023-04-19T19:27:02.994Z,50.43
2023-04-19T19:29:50.701Z,47.73
2023-04-19T19:32:37.726Z,48.37
2023-04-19T19:35:25.311Z,46.00
2023-04-19T19:38:12.174Z,39.57
2023-04-19T19:41:39.873Z,44.17
2023-04-19T19:44:06.129Z,46.43
2023-04-19T19:46:53.322Z,41.00
2023-04-19T19:50:02.005Z,26.77
2023-04-19T19:52:48.051Z,28.10
2023-04-19T19:55:35.065Z,20.30
2023-04-19T19:58:46.227Z,29.87
2023-04-19T20:01:28.931Z,39.93
2023-04-19T20:04:15.960Z,26.33
2023-04-19T20:09:52.815Z,31.17
2023-04-19T20:12:39.646Z,22.03
2023-04-19T20:15:27.204Z,19.93
2023-04-19T20:18:14.056Z,27.17
2023-04-19T20:21:01.010Z,25.07
2023-04-19T20:23:47.816Z,25.90
2023-04-19T20:26:34.767Z,34.40
2023-04-19T20:29:22.110Z,25.73
2023-04-19T20:32:09.047Z,20.60
2023-04-19T20:34:55.905Z,21.10
2023-04-19T20:37:42.993Z,13.27
2023-04-19T20:40:34.865Z,15.73
2023-04-19T20:43:21.940Z,9.17
2023-04-19T20:46:08.914Z,8.67
2023-04-19T20:48:56.038Z,15.90
2023-04-19T20:51:42.873Z,11.97
2023-04-19T20:54:30.050Z,12.03
2023-04-19T20:57:20.401Z,11.30
2023-04-19T21:00:07.444Z,14.67
2023-04-19T21:02:54.434Z,9.27
2023-04-19T21:05:41.769Z,8.43
2023-04-19T21:08:28.607Z,9.27
2023-04-19T21:11:15.512Z,13.40
2023-04-19T21:14:02.334Z,19.73
2023-04-19T21:16:49.245Z,20.27
2023-04-19T21:19:36.140Z,22.00
2023-04-19T21:22:23.301Z,9.97
2023-04-19T21:25:10.144Z,14.70
2023-04-19T21:27:57.197Z,9.40
2023-04-19T21:30:44.100Z,16.27
2023-04-19T21:33:31.178Z,11.80
2023-04-19T21:36:18.020Z,15.57
2023-04-19T21:39:05.351Z,14.73
2023-04-19T21:41:52.269Z,9.47
2023-04-19T21:44:39.736Z,10.20
2023-04-19T21:47:27.149Z,12.17
2023-04-19T21:50:14.134Z,16.13
2023-04-19T21:53:00.968Z,14.73
2023-04-19T21:55:48.081Z,9.87
2023-04-19T21:58:35.147Z,12.43
2023-04-19T22:01:22.123Z,13.93
2023-04-19T22:04:09.180Z,17.20
2023-04-19T22:06:56.127Z,15.47
2023-04-19T22:09:43.062Z,17.30
2023-04-19T22:12:30.027Z,18.40
2023-04-19T22:15:16.983Z,20.47
2023-04-19T22:18:03.952Z,18.23
2023-04-19T22:20:50.906Z,15.10
2023-04-19T22:23:37.838Z,9.13
2023-04-19T22:26:25.038Z,13.00
2023-04-19T22:29:12.204Z,14.47
2023-04-19T22:31:59.189Z,9.27
2023-04-19T22:34:46.184Z,15.53
2023-04-19T22:37:33.165Z,11.87
2023-04-19T22:40:20.088Z,12.37
2023-04-19T22:43:07.128Z,10.97
2023-04-19T22:45:54.059Z,15.23
2023-04-19T22:48:41.106Z,7.93
2023-04-19T22:51:28.139Z,13.17
2023-04-19T22:54:15.525Z,9.03
2023-04-19T22:57:02.787Z,6.57
2023-04-19T22:59:49.717Z,12.07
2023-04-19T23:02:36.758Z,6.60
2023-04-19T23:05:24.538Z,7.00
2023-04-19T23:08:11.435Z,9.63
2023-04-19T23:10:58.461Z,7.13
2023-04-19T23:13:45.334Z,5.30
2023-04-19T23:16:32.346Z,5.07
2023-04-19T23:19:19.372Z,9.17
2023-04-19T23:22:06.451Z,6.20
2023-04-19T23:24:53.382Z,6.00
2023-04-19T23:27:40.372Z,9.03
2023-04-19T23:30:27.790Z,6.57
2023-04-19T23:33:14.730Z,8.50
2023-04-19T23:36:01.656Z,10.30
2023-04-19T23:38:48.743Z,10.47
2023-04-19T23:41:35.634Z,8.70
2023-04-19T23:44:22.747Z,4.70
2023-04-19T23:47:09.731Z,7.27
2023-04-19T23:49:56.683Z,6.80
2023-04-19T23:52:43.816Z,4.93
2023-04-19T23:55:30.697Z,9.03
2023-04-19T23:58:17.764Z,6.37
